Time;durP1;ratioP1;P1;durP2;ratioP2;P2;SDS_P1;SDS_P2;PMS_P1;PMS_P2;Temp;Humidity;BMP_temperature;BMP_pressure;BME280_temperature;BME280_humidity;BME280_pressure;Samples;Min_cycle;Max_cycle;Signal;HPM_P1;HPM_P2
2023/10/05 00:01:56;;;;;;;1.87;1.10;;;;;;;;;;5066710;28;20660;-40
2023/10/05 00:04:26;;;;;;;2.27;1.40;;;;;;;;;;5061732;28;20557;-37
2023/10/05 00:06:54;;;;;;;1.30;1.20;;;;;;;;;;5057959;28;20237;-31
2023/10/05 00:09:24;;;;;;;2.00;1.20;;;;;;;;;;5066227;28;20212;-40
2023/10/05 00:11:54;;;;;;;1.00;1.00;;;;;;;;;;5049124;28;20216;-36
2023/10/05 00:14:24;;;;;;;3.43;1.40;;;;;;;;;;5059335;28;20206;-38
2023/10/05 00:16:54;;;;;;;2.90;1.20;;;;;;;;;;5058117;28;20498;-35
2023/10/05 00:19:22;;;;;;;1.50;1.07;;;;;;;;;;5065827;28;20636;-37
2023/10/05 00:21:51;;;;;;;1.83;1.30;;;;;;;;;;5052527;28;20206;-43
2023/10/05 00:24:20;;;;;;;1.50;1.40;;;;;;;;;;5063706;28;20655;-32
2023/10/05 00:26:49;;;;;;;3.13;1.47;;;;;;;;;;5058213;28;20205;-39
2023/10/05 00:29:19;;;;;;;1.73;1.17;;;;;;;;;;5060659;28;20193;-40
2023/10/05 00:31:46;;;;;;;2.87;1.30;;;;;;;;;;5066317;28;20208;-42
2023/10/05 00:34:21;;;;;;;1.40;1.30;;;;;;;;;;5066417;28;20267;-40
2023/10/05 00:36:52;;;;;;;3.47;1.10;;;;;;;;;;5038832;28;20232;-39
2023/10/05 00:39:20;;;;;;;3.50;1.30;;;;;;;;;;5063016;28;20217;-34
2023/10/05 00:41:49;;;;;;;1.83;1.30;;;;;;;;;;5057971;28;20227;-42
2023/10/05 00:44:16;;;;;;;1.20;1.10;;;;;;;;;;5066743;28;20661;-41
2023/10/05 00:46:48;;;;;;;2.57;1.30;;;;;;;;;;5066270;28;20233;-40
2023/10/05 00:49:19;;;;;;;2.40;1.47;;;;;;;;;;5066205;28;20206;-39
2023/10/05 00:51:55;;;;;;;1.73;1.40;;;;;;;;;;5060849;28;20209;-39
2023/10/05 00:54:32;;;;;;;2.30;1.20;;;;;;;;;;5066846;28;20197;-34
2023/10/05 00:57:03;;;;;;;1.60;1.40;;;;;;;;;;5051127;28;20298;-39
2023/10/05 00:59:31;;;;;;;2.37;1.50;;;;;;;;;;5062574;28;20231;-38
2023/10/05 01:02:05;;;;;;;1.67;1.20;;;;;;;;;;5056631;28;20232;-40
2023/10/05 01:04:52;;;;;;;1.13;1.03;;;;;;;;;;5061816;28;20220;-34
2023/10/05 01:07:28;;;;;;;1.67;1.57;;;;;;;;;;5064379;28;20382;-36
2023/10/05 01:10:21;;;;;;;1.00;1.00;;;;;;;;;;5053328;28;20218;-40
2023/10/05 01:12:47;;;;;;;1.90;1.33;;;;;;;;;;5048751;28;20310;-38
2023/10/05 01:15:19;;;;;;;1.40;1.30;;;;;;;;;;5061102;28;20217;-43
2023/10/05 01:17:47;;;;;;;1.77;1.47;;;;;;;;;;5063909;28;20265;-37
2023/10/05 01:20:23;;;;;;;0.97;0.97;;;;;;;;;;5061474;28;20711;-37
2023/10/05 01:22:54;;;;;;;1.17;1.07;;;;;;;;;;5052996;28;20504;-36
2023/10/05 01:25:24;;;;;;;0.90;0.90;;;;;;;;;;5065397;28;20212;-35
2023/10/05 01:27:52;;;;;;;3.00;1.20;;;;;;;;;;5059235;28;20201;-35
2023/10/05 01:30:20;;;;;;;2.30;1.20;;;;;;;;;;5061166;28;20663;-36
2023/10/05 01:32:49;;;;;;;1.67;1.37;;;;;;;;;;5064098;28;20201;-36
2023/10/05 01:35:19;;;;;;;2.27;1.23;;;;;;;;;;5056281;28;20271;-36
2023/10/05 01:37:47;;;;;;;2.67;1.20;;;;;;;;;;5065294;28;20262;-39
2023/10/05 01:40:20;;;;;;;1.30;1.20;;;;;;;;;;5065713;28;20710;-39
2023/10/05 01:42:51;;;;;;;2.30;1.10;;;;;;;;;;5056248;28;20296;-38
2023/10/05 01:45:22;;;;;;;1.80;1.13;;;;;;;;;;5060631;28;20197;-40
2023/10/05 01:47:50;;;;;;;1.40;1.30;;;;;;;;;;5050252;28;20563;-38
2023/10/05 01:50:19;;;;;;;1.17;1.00;;;;;;;;;;5065428;28;20225;-36
2023/10/05 01:52:49;;;;;;;2.20;1.30;;;;;;;;;;5064792;28;20209;-41
2023/10/05 01:55:18;;;;;;;1.30;1.20;;;;;;;;;;5062424;28;20628;-41
2023/10/05 01:57:45;;;;;;;2.07;1.33;;;;;;;;;;5055261;28;20233;-44
2023/10/05 02:00:20;;;;;;;2.67;1.40;;;;;;;;;;5059857;28;20224;-35
2023/10/05 02:02:48;;;;;;;1.50;1.30;;;;;;;;;;5065246;28;20209;-36
2023/10/05 02:05:15;;;;;;;1.40;1.30;;;;;;;;;;5057924;28;20212;-35
2023/10/05 02:07:42;;;;;;;3.47;1.50;;;;;;;;;;5062491;28;20202;-41
2023/10/05 02:10:10;;;;;;;1.20;1.10;;;;;;;;;;5065411;28;20612;-37
2023/10/05 02:12:39;;;;;;;1.10;1.10;;;;;;;;;;5047374;28;20209;-38
2023/10/05 02:15:13;;;;;;;1.43;1.30;;;;;;;;;;5059784;28;20261;-39
2023/10/05 02:17:46;;;;;;;1.43;1.33;;;;;;;;;;5061473;28;20217;-39
2023/10/05 02:20:25;;;;;;;1.67;1.57;;;;;;;;;;5067847;28;20225;-33
2023/10/05 02:22:54;;;;;;;2.83;1.23;;;;;;;;;;5067637;28;20205;-40
2023/10/05 02:25:25;;;;;;;1.77;1.67;;;;;;;;;;5064850;28;20208;-36
2023/10/05 02:27:52;;;;;;;4.30;1.20;;;;;;;;;;5057783;28;20211;-35
2023/10/05 02:30:27;;;;;;;2.10;1.30;;;;;;;;;;5060060;28;20223;-38
2023/10/05 02:32:58;;;;;;;2.13;1.23;;;;;;;;;;5064712;28;20213;-38
2023/10/05 02:35:30;;;;;;;1.53;1.20;;;;;;;;;;5060181;28;20211;-38
2023/10/05 02:37:58;;;;;;;3.20;1.07;;;;;;;;;;5060987;28;20253;-41
2023/10/05 02:40:34;;;;;;;1.40;1.30;;;;;;;;;;5065624;28;20236;-39
2023/10/05 02:43:07;;;;;;;1.07;1.03;;;;;;;;;;5059484;28;20270;-35
2023/10/05 02:45:36;;;;;;;1.03;0.97;;;;;;;;;;5065035;28;20216;-39
2023/10/05 02:48:06;;;;;;;2.07;1.30;;;;;;;;;;5057321;28;20207;-42
2023/10/05 02:50:38;;;;;;;2.27;1.33;;;;;;;;;;5063818;28;20234;-38
2023/10/05 02:53:06;;;;;;;1.13;1.10;;;;;;;;;;5062691;28;20459;-41
2023/10/05 02:55:36;;;;;;;1.70;1.30;;;;;;;;;;5069059;28;20206;-36
2023/10/05 02:58:04;;;;;;;1.20;1.10;;;;;;;;;;5049554;28;20542;-42
2023/10/05 03:00:34;;;;;;;1.60;1.30;;;;;;;;;;5055369;28;20231;-38
2023/10/05 03:03:03;;;;;;;2.20;1.20;;;;;;;;;;5067819;28;20861;-38
2023/10/05 03:05:35;;;;;;;1.20;1.10;;;;;;;;;;5068586;28;20217;-40
2023/10/05 03:08:04;;;;;;;1.93;1.10;;;;;;;;;;5060924;28;20562;-42
2023/10/05 03:10:31;;;;;;;3.43;1.27;;;;;;;;;;5064728;28;20242;-35
2023/10/05 03:12:58;;;;;;;1.63;1.30;;;;;;;;;;5050514;28;20208;-38
2023/10/05 03:15:27;;;;;;;2.07;1.30;;;;;;;;;;5064062;28;20209;-38
2023/10/05 03:17:56;;;;;;;1.33;1.23;;;;;;;;;;5068090;28;20237;-38
2023/10/05 03:20:24;;;;;;;1.07;1.03;;;;;;;;;;5067125;28;20243;-39
2023/10/05 03:22:55;;;;;;;1.13;1.00;;;;;;;;;;5068277;28;20209;-37
2023/10/05 03:25:25;;;;;;;1.80;1.60;;;;;;;;;;5069336;28;20205;-41
2023/10/05 03:27:56;;;;;;;1.30;1.20;;;;;;;;;;5053567;28;20764;-38
2023/10/05 03:30:30;;;;;;;1.30;1.20;;;;;;;;;;5063350;28;20226;-34
2023/10/05 03:33:00;;;;;;;1.10;1.00;;;;;;;;;;5069263;28;20208;-38
2023/10/05 03:35:32;;;;;;;2.60;1.00;;;;;;;;;;5060944;28;20209;-38
2023/10/05 03:38:00;;;;;;;1.97;1.43;;;;;;;;;;5068345;28;20229;-36
2023/10/05 03:40:35;;;;;;;1.67;1.40;;;;;;;;;;5070323;28;20232;-39
2023/10/05 03:43:05;;;;;;;1.67;0.97;;;;;;;;;;5056679;28;20200;-38
2023/10/05 03:45:32;;;;;;;1.73;1.20;;;;;;;;;;5066823;28;20230;-35
2023/10/05 03:48:01;;;;;;;2.10;1.40;;;;;;;;;;5067001;28;20220;-38
2023/10/05 03:50:29;;;;;;;2.00;0.97;;;;;;;;;;5064577;28;20217;-42
2023/10/05 03:52:57;;;;;;;2.90;1.43;;;;;;;;;;5060908;28;20205;-37
2023/10/05 03:55:25;;;;;;;1.50;1.40;;;;;;;;;;5067524;28;20712;-37
2023/10/05 03:57:53;;;;;;;1.27;1.17;;;;;;;;;;5054454;28;20313;-37
2023/10/05 04:00:31;;;;;;;1.23;1.13;;;;;;;;;;5060506;28;20231;-38
2023/10/05 04:02:59;;;;;;;1.30;1.20;;;;;;;;;;5066820;28;20647;-38
2023/10/05 04:05:26;;;;;;;1.30;1.20;;;;;;;;;;5062449;28;20209;-41
2023/10/05 04:07:55;;;;;;;1.50;1.30;;;;;;;;;;5063120;28;20210;-39
2023/10/05 04:10:23;;;;;;;1.20;1.10;;;;;;;;;;5066823;28;20233;-35
2023/10/05 04:12:54;;;;;;;2.80;1.40;;;;;;;;;;5054258;28;20209;-39
2023/10/05 04:15:21;;;;;;;1.40;1.30;;;;;;;;;;5066740;28;20553;-35
2023/10/05 04:17:49;;;;;;;1.77;1.30;;;;;;;;;;5065043;28;20715;-36
2023/10/05 04:20:19;;;;;;;1.13;1.03;;;;;;;;;;5058911;28;20241;-39
2023/10/05 04:22:49;;;;;;;1.47;1.30;;;;;;;;;;5057733;28;20484;-37
2023/10/05 04:25:17;;;;;;;1.27;1.17;;;;;;;;;;5066041;28;20202;-44
2023/10/05 04:27:46;;;;;;;1.00;1.00;;;;;;;;;;5055020;28;20201;-38
2023/10/05 04:30:18;;;;;;;1.43;1.20;;;;;;;;;;5059230;28;20235;-40
2023/10/05 04:32:45;;;;;;;1.30;1.20;;;;;;;;;;5063553;28;20292;-37
2023/10/05 04:35:21;;;;;;;3.33;1.10;;;;;;;;;;5058476;28;20197;-37
2023/10/05 04:37:49;;;;;;;1.73;1.30;;;;;;;;;;5061506;28;20224;-39
2023/10/05 04:40:17;;;;;;;1.40;1.13;;;;;;;;;;5066246;28;20317;-34
2023/10/05 04:42:45;;;;;;;1.30;1.20;;;;;;;;;;5057221;28;20568;-37
2023/10/05 04:45:14;;;;;;;1.67;1.30;;;;;;;;;;5058257;28;20312;-34
2023/10/05 04:47:43;;;;;;;1.37;1.27;;;;;;;;;;5065413;28;20212;-36
2023/10/05 04:50:13;;;;;;;1.17;1.17;;;;;;;;;;5061075;28;20225;-37
2023/10/05 04:52:41;;;;;;;1.93;1.30;;;;;;;;;;5054241;28;20202;-32
2023/10/05 04:55:18;;;;;;;3.10;1.30;;;;;;;;;;5068946;28;20237;-37
2023/10/05 04:57:55;;;;;;;1.87;1.50;;;;;;;;;;5063929;28;20216;-40
2023/10/05 05:03:33;;;;;;;1.37;1.17;;;;;;;;;;5064354;28;20417;-37
2023/10/05 05:06:10;;;;;;;2.03;1.20;;;;;;;;;;5059804;28;20291;-39
2023/10/05 05:08:39;;;;;;;1.37;1.17;;;;;;;;;;5064841;28;20244;-38
2023/10/05 05:11:11;;;;;;;1.20;1.10;;;;;;;;;;5056445;28;20244;-42
2023/10/05 05:13:39;;;;;;;1.50;1.40;;;;;;;;;;5058118;28;20583;-37
2023/10/05 05:16:07;;;;;;;1.10;1.10;;;;;;;;;;5064341;28;20596;-38
2023/10/05 05:18:38;;;;;;;1.60;1.50;;;;;;;;;;5064982;28;20233;-41
2023/10/05 05:21:07;;;;;;;1.37;1.07;;;;;;;;;;5057751;28;20221;-40
2023/10/05 05:23:35;;;;;;;3.53;1.67;;;;;;;;;;5059623;28;20687;-37
2023/10/05 05:26:03;;;;;;;1.30;1.20;;;;;;;;;;5061291;28;20216;-38
2023/10/05 05:28:30;;;;;;;1.73;1.23;;;;;;;;;;5061193;28;20201;-37
2023/10/05 05:31:06;;;;;;;1.50;1.40;;;;;;;;;;5065841;28;20221;-42
2023/10/05 05:33:35;;;;;;;1.77;1.17;;;;;;;;;;5066181;28;20197;-36
2023/10/05 05:36:08;;;;;;;2.17;1.47;;;;;;;;;;5060619;28;20205;-37
2023/10/05 05:38:35;;;;;;;3.90;1.40;;;;;;;;;;5063500;28;20758;-38
2023/10/05 05:41:11;;;;;;;0.90;0.90;;;;;;;;;;5068919;28;20586;-39
2023/10/05 05:43:39;;;;;;;2.73;1.13;;;;;;;;;;5063406;28;20209;-36
2023/10/05 05:46:10;;;;;;;1.87;1.43;;;;;;;;;;5068237;28;20649;-40
2023/10/05 05:48:37;;;;;;;3.27;1.20;;;;;;;;;;5068730;28;20205;-36
2023/10/05 05:51:10;;;;;;;1.93;1.37;;;;;;;;;;5066136;28;20247;-39
2023/10/05 05:53:39;;;;;;;3.60;1.30;;;;;;;;;;5068796;28;20212;-41
2023/10/05 05:56:06;;;;;;;1.90;1.30;;;;;;;;;;5064817;28;20205;-36
2023/10/05 05:58:34;;;;;;;2.70;1.53;;;;;;;;;;5062613;28;20236;-39
2023/10/05 06:01:01;;;;;;;1.20;1.10;;;;;;;;;;5068059;28;20229;-37
2023/10/05 06:03:28;;;;;;;3.67;1.40;;;;;;;;;;5069565;28;20401;-37
2023/10/05 06:05:55;;;;;;;1.77;1.50;;;;;;;;;;5058294;28;20205;-40
2023/10/05 06:08:23;;;;;;;1.60;1.27;;;;;;;;;;5068005;28;20742;-39
2023/10/05 06:10:51;;;;;;;2.00;1.33;;;;;;;;;;5063035;28;20282;-39
2023/10/05 06:13:19;;;;;;;3.13;1.40;;;;;;;;;;5049201;28;20293;-41
2023/10/05 06:15:46;;;;;;;4.67;1.70;;;;;;;;;;5064400;28;20201;-40
2023/10/05 06:18:14;;;;;;;1.47;1.00;;;;;;;;;;5068427;28;20221;-33
2023/10/05 06:20:41;;;;;;;3.87;1.57;;;;;;;;;;5064211;28;20586;-42
2023/10/05 06:23:08;;;;;;;2.57;1.53;;;;;;;;;;5067733;28;20387;-35
2023/10/05 06:25:35;;;;;;;2.90;1.47;;;;;;;;;;5068586;28;20201;-39
2023/10/05 06:28:04;;;;;;;2.10;1.77;;;;;;;;;;5064431;28;20201;-34
2023/10/05 06:30:35;;;;;;;2.10;1.80;;;;;;;;;;5072492;28;20228;-38
2023/10/05 06:33:02;;;;;;;2.27;1.50;;;;;;;;;;5072185;28;20247;-37
2023/10/05 06:35:29;;;;;;;1.60;1.40;;;;;;;;;;5062803;28;20213;-37
2023/10/05 06:37:57;;;;;;;3.27;1.63;;;;;;;;;;5069531;28;20603;-36
2023/10/05 06:40:25;;;;;;;1.50;1.30;;;;;;;;;;5071930;28;20229;-34
2023/10/05 06:42:52;;;;;;;2.07;1.60;;;;;;;;;;5059855;28;20206;-42
2023/10/05 06:45:23;;;;;;;2.60;1.13;;;;;;;;;;5071306;28;20579;-36
2023/10/05 06:47:50;;;;;;;2.90;1.77;;;;;;;;;;5071802;28;20205;-39
2023/10/05 06:50:18;;;;;;;1.57;1.30;;;;;;;;;;5068537;28;20221;-35
2023/10/05 06:52:46;;;;;;;1.43;1.30;;;;;;;;;;5071867;28;20206;-43
2023/10/05 06:55:14;;;;;;;2.50;1.70;;;;;;;;;;5070967;28;20236;-39
2023/10/05 06:57:43;;;;;;;3.00;1.70;;;;;;;;;;5060539;28;20222;-36
2023/10/05 07:00:16;;;;;;;1.77;1.50;;;;;;;;;;5070588;28;20229;-36
2023/10/05 07:02:45;;;;;;;1.67;1.43;;;;;;;;;;5072257;28;20201;-39
2023/10/05 07:05:13;;;;;;;2.27;2.00;;;;;;;;;;5061157;28;20212;-38
2023/10/05 07:07:41;;;;;;;2.30;1.77;;;;;;;;;;5071229;28;20212;-42
2023/10/05 07:10:09;;;;;;;1.47;1.33;;;;;;;;;;5071198;28;20229;-39
2023/10/05 07:12:38;;;;;;;2.73;1.77;;;;;;;;;;5063550;28;20685;-38
2023/10/05 07:15:06;;;;;;;2.20;1.90;;;;;;;;;;5070283;28;20292;-37
2023/10/05 07:17:33;;;;;;;3.47;1.57;;;;;;;;;;5069434;28;20201;-39
2023/10/05 07:20:02;;;;;;;1.70;1.60;;;;;;;;;;5064251;28;20229;-37
2023/10/05 07:22:29;;;;;;;2.20;1.80;;;;;;;;;;5068450;28;20267;-37
2023/10/05 07:24:57;;;;;;;2.37;1.57;;;;;;;;;;5070572;28;20608;-38
2023/10/05 07:27:24;;;;;;;2.83;1.97;;;;;;;;;;5055400;28;20258;-37
2023/10/05 07:29:51;;;;;;;2.90;1.67;;;;;;;;;;5070722;28;20233;-36
2023/10/05 07:32:18;;;;;;;3.27;1.97;;;;;;;;;;5070586;28;20201;-37
2023/10/05 07:34:47;;;;;;;2.70;1.30;;;;;;;;;;5071124;28;20209;-41
2023/10/05 07:37:16;;;;;;;1.67;1.50;;;;;;;;;;5069245;28;20205;-33
2023/10/05 07:39:43;;;;;;;6.27;2.20;;;;;;;;;;5073675;28;20239;-36
2023/10/05 07:42:10;;;;;;;1.90;1.80;;;;;;;;;;5066073;28;20240;-38
2023/10/05 07:44:39;;;;;;;4.47;2.00;;;;;;;;;;5068725;28;20284;-34
2023/10/05 07:47:07;;;;;;;4.40;2.13;;;;;;;;;;5067579;28;20259;-40
2023/10/05 07:49:35;;;;;;;5.37;2.03;;;;;;;;;;5064760;28;20232;-39
2023/10/05 07:52:03;;;;;;;2.90;2.17;;;;;;;;;;5063356;28;20211;-35
2023/10/05 07:54:34;;;;;;;3.43;1.40;;;;;;;;;;5068223;28;20217;-35
2023/10/05 07:57:01;;;;;;;3.07;2.10;;;;;;;;;;5065149;28;20202;-36
2023/10/05 07:59:28;;;;;;;3.40;1.80;;;;;;;;;;5070102;28;20261;-33
2023/10/05 08:01:55;;;;;;;3.97;1.80;;;;;;;;;;5070515;28;20209;-38
2023/10/05 08:04:23;;;;;;;1.77;1.67;;;;;;;;;;5065276;28;20209;-35
2023/10/05 08:06:51;;;;;;;3.27;2.20;;;;;;;;;;5065118;28;20214;-39
2023/10/05 08:09:20;;;;;;;2.57;2.17;;;;;;;;;;5069760;28;20284;-39
2023/10/05 08:11:50;;;;;;;3.47;1.70;;;;;;;;;;5060586;28;20209;-35
2023/10/05 08:14:17;;;;;;;3.27;2.20;;;;;;;;;;5068388;28;20201;-37
2023/10/05 08:16:45;;;;;;;1.90;1.70;;;;;;;;;;5070708;28;20213;-36
2023/10/05 08:19:12;;;;;;;3.70;2.00;;;;;;;;;;5069498;28;20249;-35
2023/10/05 08:21:40;;;;;;;2.20;2.00;;;;;;;;;;5067560;28;20259;-36
2023/10/05 08:24:07;;;;;;;2.67;1.97;;;;;;;;;;5069963;28;20722;-41
2023/10/05 08:26:35;;;;;;;2.00;1.67;;;;;;;;;;5063688;28;20256;-37
2023/10/05 08:29:06;;;;;;;5.07;2.30;;;;;;;;;;5067388;28;20201;-36
2023/10/05 08:31:33;;;;;;;2.53;2.10;;;;;;;;;;5064905;28;20583;-39
2023/10/05 08:34:03;;;;;;;2.07;1.97;;;;;;;;;;5069838;28;20247;-35
2023/10/05 08:36:30;;;;;;;1.93;1.80;;;;;;;;;;5065691;28;20205;-37
2023/10/05 08:38:57;;;;;;;2.43;1.90;;;;;;;;;;5069254;28;20225;-36
2023/10/05 08:41:31;;;;;;;4.53;2.50;;;;;;;;;;5064523;28;20236;-37
2023/10/05 08:44:02;;;;;;;2.40;2.07;;;;;;;;;;5068605;28;20215;-38
2023/10/05 08:46:41;;;;;;;3.13;1.70;;;;;;;;;;5069471;28;20794;-37
2023/10/05 08:49:10;;;;;;;6.53;2.67;;;;;;;;;;5067623;28;20207;-41
2023/10/05 08:51:39;;;;;;;3.00;2.10;;;;;;;;;;5066194;28;20599;-36
2023/10/05 08:54:11;;;;;;;3.37;2.17;;;;;;;;;;5068774;28;20252;-37
2023/10/05 08:56:40;;;;;;;5.17;2.70;;;;;;;;;;5063735;28;20234;-37
2023/10/05 08:59:13;;;;;;;3.50;2.13;;;;;;;;;;5068584;28;20217;-38
2023/10/05 09:01:43;;;;;;;2.87;1.93;;;;;;;;;;5069357;28;20212;-32
2023/10/05 09:04:29;;;;;;;3.57;2.43;;;;;;;;;;5066358;28;20206;-36
2023/10/05 09:06:56;;;;;;;2.27;1.73;;;;;;;;;;5064712;28;20201;-38
2023/10/05 09:09:35;;;;;;;3.70;2.40;;;;;;;;;;5068678;28;20201;-38
2023/10/05 09:12:16;;;;;;;2.53;2.20;;;;;;;;;;5062541;28;20206;-35
2023/10/05 09:14:43;;;;;;;3.67;2.50;;;;;;;;;;5063285;28;20205;-36
2023/10/05 09:17:15;;;;;;;4.23;2.47;;;;;;;;;;5068506;28;20240;-39
2023/10/05 09:19:46;;;;;;;4.03;2.70;;;;;;;;;;5066581;28;20310;-39
2023/10/05 09:22:14;;;;;;;2.40;1.60;;;;;;;;;;5062480;28;20244;-32
2023/10/05 09:24:43;;;;;;;4.60;2.77;;;;;;;;;;5068464;28;20642;-37
2023/10/05 09:27:17;;;;;;;2.77;2.13;;;;;;;;;;5055780;28;20213;-33
2023/10/05 09:29:45;;;;;;;3.10;2.13;;;;;;;;;;5068640;28;20322;-38
2023/10/05 09:32:25;;;;;;;2.87;2.50;;;;;;;;;;5068337;28;20201;-42
2023/10/05 09:34:56;;;;;;;4.50;2.27;;;;;;;;;;5064296;28;20201;-37
2023/10/05 09:37:25;;;;;;;4.77;2.80;;;;;;;;;;5070555;28;20201;-41
2023/10/05 09:39:54;;;;;;;2.77;2.07;;;;;;;;;;5067950;28;20235;-42
2023/10/05 09:42:25;;;;;;;2.50;2.30;;;;;;;;;;5061556;28;20265;-35
2023/10/05 09:44:53;;;;;;;5.03;2.80;;;;;;;;;;5068725;28;20297;-39
2023/10/05 09:47:26;;;;;;;4.37;2.47;;;;;;;;;;5068603;28;20303;-32
2023/10/05 09:49:54;;;;;;;4.93;1.90;;;;;;;;;;5066887;28;20217;-40
2023/10/05 09:52:24;;;;;;;10.37;2.80;;;;;;;;;;5063143;28;20299;-38
2023/10/05 09:54:51;;;;;;;5.10;2.60;;;;;;;;;;5067557;28;20209;-34
2023/10/05 09:57:20;;;;;;;6.40;2.53;;;;;;;;;;5060027;28;20208;-38
2023/10/05 09:59:57;;;;;;;4.40;2.43;;;;;;;;;;5068224;28;20596;-41
2023/10/05 10:02:28;;;;;;;4.33;2.93;;;;;;;;;;5068617;28;20204;-38
2023/10/05 10:04:57;;;;;;;8.97;2.70;;;;;;;;;;5072997;28;20201;-36
2023/10/05 10:07:26;;;;;;;3.87;2.40;;;;;;;;;;5055899;28;20202;-37
2023/10/05 10:09:56;;;;;;;6.20;2.93;;;;;;;;;;5072445;28;20253;-40
2023/10/05 10:12:26;;;;;;;4.97;2.80;;;;;;;;;;5065275;28;20210;-40
2023/10/05 10:14:58;;;;;;;3.67;2.63;;;;;;;;;;5072805;28;20205;-39
2023/10/05 10:17:29;;;;;;;6.53;2.83;;;;;;;;;;5072256;28;20232;-32
2023/10/05 10:20:16;;;;;;;6.43;2.80;;;;;;;;;;5072866;28;20225;-39
2023/10/05 10:22:55;;;;;;;8.10;2.67;;;;;;;;;;5070811;28;20298;-37
2023/10/05 10:25:31;;;;;;;5.93;2.70;;;;;;;;;;5072672;28;20263;-35
2023/10/05 10:28:16;;;;;;;5.87;2.40;;;;;;;;;;5067529;28;20220;-40
2023/10/05 10:30:58;;;;;;;6.07;2.50;;;;;;;;;;5072964;28;20224;-38
2023/10/05 10:33:34;;;;;;;6.33;2.77;;;;;;;;;;5069667;28;20262;-38
2023/10/05 10:36:03;;;;;;;7.17;3.27;;;;;;;;;;5063698;28;20260;-39
2023/10/05 10:38:31;;;;;;;5.90;2.90;;;;;;;;;;5071909;28;20221;-42
2023/10/05 10:41:07;;;;;;;4.67;2.43;;;;;;;;;;5070417;28;20225;-39
2023/10/05 10:43:34;;;;;;;8.00;3.10;;;;;;;;;;5069313;28;20200;-32
2023/10/05 10:46:06;;;;;;;6.00;3.30;;;;;;;;;;5072601;28;20312;-37
2023/10/05 10:48:36;;;;;;;6.17;2.73;;;;;;;;;;5071889;28;20197;-36
2023/10/05 10:51:10;;;;;;;7.10;2.80;;;;;;;;;;5066346;28;20288;-35
2023/10/05 10:53:40;;;;;;;5.73;3.00;;;;;;;;;;5067774;28;20227;-40
2023/10/05 10:56:27;;;;;;;6.33;2.67;;;;;;;;;;5069789;28;20202;-37
2023/10/05 10:59:10;;;;;;;4.63;2.60;;;;;;;;;;5063462;28;20231;-38
2023/10/05 11:01:52;;;;;;;7.50;2.90;;;;;;;;;;5065108;28;20288;-36
2023/10/05 11:04:32;;;;;;;7.40;2.40;;;;;;;;;;5069181;28;20302;-35
2023/10/05 11:07:05;;;;;;;5.50;3.07;;;;;;;;;;5068167;28;20216;-34
2023/10/05 11:09:36;;;;;;;5.73;2.90;;;;;;;;;;5072467;28;20228;-39
2023/10/05 11:12:10;;;;;;;8.10;3.00;;;;;;;;;;5062747;28;20213;-36
2023/10/05 11:14:38;;;;;;;5.83;2.70;;;;;;;;;;5068685;28;20858;-39
2023/10/05 11:17:12;;;;;;;5.17;2.50;;;;;;;;;;5072932;28;20284;-37
2023/10/05 11:19:42;;;;;;;6.17;2.67;;;;;;;;;;5060087;28;20307;-37
2023/10/05 11:22:12;;;;;;;8.13;3.07;;;;;;;;;;5067652;28;20288;-39
2023/10/05 11:24:59;;;;;;;6.90;3.10;;;;;;;;;;5063589;28;20199;-40
2023/10/05 11:27:26;;;;;;;6.17;2.70;;;;;;;;;;5062066;28;20296;-40
2023/10/05 11:29:55;;;;;;;4.67;2.50;;;;;;;;;;5070810;28;20304;-41
2023/10/05 11:32:25;;;;;;;4.83;2.33;;;;;;;;;;5071056;28;20206;-35
2023/10/05 11:34:55;;;;;;;11.03;2.90;;;;;;;;;;5071960;28;20588;-38
2023/10/05 11:37:25;;;;;;;10.57;3.40;;;;;;;;;;5069101;28;20205;-34
2023/10/05 11:39:58;;;;;;;6.03;2.90;;;;;;;;;;5063296;28;20260;-35
2023/10/05 11:42:27;;;;;;;8.00;3.60;;;;;;;;;;5061960;28;20270;-41
2023/10/05 11:44:56;;;;;;;9.23;3.13;;;;;;;;;;5064682;28;20206;-39
2023/10/05 11:47:32;;;;;;;8.43;3.17;;;;;;;;;;5067374;28;20212;-38
2023/10/05 11:50:05;;;;;;;6.40;2.90;;;;;;;;;;5071024;28;20224;-36
2023/10/05 11:52:32;;;;;;;7.10;2.43;;;;;;;;;;5063114;28;20309;-38
2023/10/05 11:54:59;;;;;;;5.50;2.67;;;;;;;;;;5065167;28;20212;-42
2023/10/05 11:57:29;;;;;;;7.23;3.10;;;;;;;;;;5060995;28;20686;-39
2023/10/05 11:59:59;;;;;;;7.20;2.90;;;;;;;;;;5070527;28;20229;-40
2023/10/05 12:02:27;;;;;;;5.10;3.03;;;;;;;;;;5070187;28;20304;-39
2023/10/05 12:04:54;;;;;;;8.57;3.07;;;;;;;;;;5062236;28;20198;-38
2023/10/05 12:07:25;;;;;;;8.37;2.80;;;;;;;;;;5067356;28;20238;-37
2023/10/05 12:09:52;;;;;;;7.70;3.00;;;;;;;;;;5069558;28;20227;-38
2023/10/05 12:12:19;;;;;;;12.37;3.20;;;;;;;;;;5059076;28;20245;-38
2023/10/05 12:14:46;;;;;;;5.70;2.70;;;;;;;;;;5067116;28;20207;-35
2023/10/05 12:17:13;;;;;;;5.83;2.97;;;;;;;;;;5069945;28;20207;-39
2023/10/05 12:19:41;;;;;;;6.87;2.80;;;;;;;;;;5069563;28;20225;-41
2023/10/05 12:22:13;;;;;;;8.30;3.23;;;;;;;;;;5062903;28;20201;-35
2023/10/05 12:24:42;;;;;;;9.17;3.37;;;;;;;;;;5070155;28;20316;-36
2023/10/05 12:27:18;;;;;;;6.00;2.90;;;;;;;;;;5060561;28;20206;-42
2023/10/05 12:29:46;;;;;;;7.87;2.90;;;;;;;;;;5061917;28;20294;-36
2023/10/05 12:32:14;;;;;;;5.23;3.20;;;;;;;;;;5069386;28;20211;-38
2023/10/05 12:34:43;;;;;;;5.47;2.90;;;;;;;;;;5069749;28;20243;-38
2023/10/05 12:37:17;;;;;;;6.07;2.90;;;;;;;;;;5060214;28;20703;-38
2023/10/05 12:39:46;;;;;;;6.70;2.90;;;;;;;;;;5061137;28;20256;-41
2023/10/05 12:42:13;;;;;;;7.23;2.90;;;;;;;;;;5066262;28;20209;-39
2023/10/05 12:44:40;;;;;;;7.30;3.23;;;;;;;;;;5065971;28;20235;-36
2023/10/05 12:47:07;;;;;;;8.20;2.70;;;;;;;;;;5069074;28;20426;-40
2023/10/05 12:49:35;;;;;;;6.67;2.87;;;;;;;;;;5063380;28;20257;-37
2023/10/05 12:52:02;;;;;;;8.80;3.30;;;;;;;;;;5069684;28;20288;-35
2023/10/05 12:54:29;;;;;;;6.30;2.63;;;;;;;;;;5069466;28;20205;-39
2023/10/05 12:57:08;;;;;;;6.33;3.03;;;;;;;;;;5065689;28;20212;-34
2023/10/05 12:59:35;;;;;;;6.63;3.03;;;;;;;;;;5064850;28;20229;-37
2023/10/05 13:02:13;;;;;;;6.53;3.00;;;;;;;;;;5069178;28;20208;-41
2023/10/05 13:04:41;;;;;;;11.43;3.03;;;;;;;;;;5069490;28;20254;-40
2023/10/05 13:07:09;;;;;;;9.70;2.43;;;;;;;;;;5057860;28;20299;-37
2023/10/05 13:09:38;;;;;;;9.93;3.33;;;;;;;;;;5067503;28;20235;-40
2023/10/05 13:12:14;;;;;;;7.77;3.20;;;;;;;;;;5062575;28;20240;-37
2023/10/05 13:14:41;;;;;;;6.60;2.67;;;;;;;;;;5068072;28;20209;-40
2023/10/05 13:17:11;;;;;;;6.67;3.27;;;;;;;;;;5069362;28;20201;-37
2023/10/05 13:19:39;;;;;;;11.30;3.17;;;;;;;;;;5068333;28;20225;-35
2023/10/05 13:22:06;;;;;;;5.90;3.13;;;;;;;;;;5060593;28;20212;-35
2023/10/05 13:24:33;;;;;;;9.10;2.90;;;;;;;;;;5069250;28;20202;-35
2023/10/05 13:27:01;;;;;;;5.80;2.87;;;;;;;;;;5059287;28;20224;-38
2023/10/05 13:29:32;;;;;;;8.53;3.20;;;;;;;;;;5061878;28;20249;-40
2023/10/05 13:31:59;;;;;;;9.07;3.07;;;;;;;;;;5068921;28;20197;-35
2023/10/05 13:34:28;;;;;;;8.33;3.30;;;;;;;;;;5064118;28;20556;-37
2023/10/05 13:36:55;;;;;;;7.10;3.20;;;;;;;;;;5068344;28;20290;-36
2023/10/05 13:39:26;;;;;;;4.70;2.53;;;;;;;;;;5067930;28;20217;-37
2023/10/05 13:42:00;;;;;;;5.90;2.73;;;;;;;;;;5063800;28;20209;-34
2023/10/05 13:44:28;;;;;;;6.23;3.00;;;;;;;;;;5064833;28;20235;-37
2023/10/05 13:46:59;;;;;;;5.17;2.80;;;;;;;;;;5069124;28;20220;-37
2023/10/05 13:49:30;;;;;;;5.90;2.83;;;;;;;;;;5064728;28;20305;-31
2023/10/05 13:51:58;;;;;;;5.57;2.97;;;;;;;;;;5062432;28;20213;-40
2023/10/05 13:54:26;;;;;;;5.10;2.83;;;;;;;;;;5069676;28;20208;-39
2023/10/05 13:56:53;;;;;;;8.73;2.90;;;;;;;;;;5064944;28;20205;-35
2023/10/05 13:59:21;;;;;;;4.93;2.97;;;;;;;;;;5059747;28;20205;-37
2023/10/05 14:01:52;;;;;;;10.53;3.53;;;;;;;;;;5060720;28;20628;-39
2023/10/05 14:04:23;;;;;;;9.50;2.73;;;;;;;;;;5065573;28;20197;-37
2023/10/05 14:06:50;;;;;;;4.47;2.70;;;;;;;;;;5059746;28;20205;-36
2023/10/05 14:09:17;;;;;;;7.33;2.73;;;;;;;;;;5068127;28;20205;-35
2023/10/05 14:11:45;;;;;;;6.80;2.53;;;;;;;;;;5064354;28;20201;-36
2023/10/05 14:14:14;;;;;;;11.10;3.10;;;;;;;;;;5063749;28;20212;-38
2023/10/05 14:16:48;;;;;;;8.17;2.97;;;;;;;;;;5068120;28;20651;-39
2023/10/05 14:19:16;;;;;;;11.50;3.30;;;;;;;;;;5059883;28;20570;-36
2023/10/05 14:21:44;;;;;;;6.80;3.07;;;;;;;;;;5067606;28;20232;-39
2023/10/05 14:24:13;;;;;;;5.97;2.87;;;;;;;;;;5069246;28;20380;-42
2023/10/05 14:26:44;;;;;;;6.20;2.60;;;;;;;;;;5063098;28;20300;-38
2023/10/05 14:29:12;;;;;;;8.93;2.70;;;;;;;;;;5060265;28;20257;-39
2023/10/05 14:31:41;;;;;;;10.73;3.53;;;;;;;;;;5066062;28;20609;-35
2023/10/05 14:34:09;;;;;;;7.10;2.93;;;;;;;;;;5069738;28;20193;-31
2023/10/05 14:36:37;;;;;;;4.97;2.50;;;;;;;;;;5066026;28;20209;-36
2023/10/05 14:39:18;;;;;;;8.13;2.93;;;;;;;;;;5058853;28;20217;-38
2023/10/05 14:41:45;;;;;;;5.77;2.40;;;;;;;;;;5065180;28;20290;-35
2023/10/05 14:44:13;;;;;;;5.73;2.50;;;;;;;;;;5058175;28;20204;-34
2023/10/05 14:46:49;;;;;;;4.83;2.63;;;;;;;;;;5068202;28;20220;-35
2023/10/05 14:49:17;;;;;;;8.47;2.80;;;;;;;;;;5068144;28;20222;-36
2023/10/05 14:51:44;;;;;;;6.43;2.60;;;;;;;;;;5067061;28;20569;-36
2023/10/05 14:54:13;;;;;;;5.43;2.70;;;;;;;;;;5072547;28;20201;-41
2023/10/05 14:56:40;;;;;;;7.50;3.77;;;;;;;;;;5066650;28;20211;-40
2023/10/05 14:59:09;;;;;;;5.83;2.83;;;;;;;;;;5059875;28;20279;-34
2023/10/05 15:01:36;;;;;;;7.90;2.87;;;;;;;;;;5059168;28;20229;-36
2023/10/05 15:04:04;;;;;;;6.90;2.73;;;;;;;;;;5071505;28;20284;-41